Flint, MI

10:27 PM EST on December 28, 2014 (GMT -0500)
Owosso | Change Station
CLOSE
Current Station
Airport
Location: Owosso,
Elevation: 735 ft
Nearby Weather Stations

Elev 735 ft 42.99 °N, 84.14 °W | Updated 12 minutes ago

Clear
Clear
29 °F
Feels Like 21 °F
N
8
Wind Variable Wind from WNW

Today
High -- | Low -- °F
--% Chance of Precip.
Yesterday
High -- | Low -- °F
Precip. -- in
8:05 AM 5:07 PM
First Quarter, 54% visible
Pressure 30.18 in
Visibility 10.0 miles
Clouds Overcast 2900 ft
Windchill 21 °F
Dew Point 24 °F
Humidity 80%
Rainfall 0.00 in
Snow Depth Not available.
UV 0 out of 12
Pollen .10 out of 12
Air Quality Not available.
Flu Activity Not available.
METAR KRNP 290315Z AUTO 29007KT 10SM OVC029 M02/M05 A3018 RMK AO2 T10161047

More Conditions Fewer Conditions

Pressure 30.18 in
Visibility 10.0 miles
Clouds Overcast 2900 ft
Windchill 21 °F
Dew Point 24 °F
Humidity 80%
Rainfall 0.00 in
Snow Depth Not available.
UV 0 out of 12
Pollen .10 out of 12
Air Quality Not available.
Flu Activity Not available.
METAR KRNP 290315Z AUTO 29007KT 10SM OVC029 M02/M05 A3018 RMK AO2 T10161047

More Conditions Fewer Conditions

10-Day Weather Forecast

Almanac

Astronomy

Dec. 28, 2014 Rise Set
Actual Time
Civil Twilight
Nautical Twilight
Astronomical Twilight
Moon
Length of Visible Light
Length of Day
Tomorrow will be .
, % of the Moon is Illuminated

Today's Extremes

State Highs State Lows

Community

WunderPhotos

Upload Photos

1,781,515 photos uploaded!

WunderBlogs® & News

Nearby

Air Quality

  Air Quality AQ Index Pollutant
Not available.

Snow Depth

Station Depth Elevation

Earthquake Activity

City Distance Mag. Time & Date
Minimum magnitude displayed is 2.5.

Coastal Water Temperatures

Place Temperature

Nearby Weather Stations